Time;durP1;ratioP1;P1;durP2;ratioP2;P2;SDS_P1;SDS_P2;PMS_P1;PMS_P2;Temp;Humidity;BMP_temperature;BMP_pressure;BME280_temperature;BME280_humidity;BME280_pressure;Samples;Min_cycle;Max_cycle;Signal;HPM_P1;HPM_P2
2021/07/30 00:02:20;;;;;;;8.27;2.10;;;18.70;99.20;;;19.36;55.56;100596.34;5094314;28;20564;-75
2021/07/30 00:04:49;;;;;;;7.68;2.10;;;18.70;99.50;;;19.33;55.89;100588.63;5078737;28;20187;-75
2021/07/30 00:07:16;;;;;;;8.27;2.35;;;18.60;99.50;;;19.30;55.78;100590.66;5077599;28;20191;-74
2021/07/30 00:09:43;;;;;;;6.57;2.10;;;18.60;99.50;;;19.29;55.76;100592.44;5095529;28;20233;-75
2021/07/30 00:12:10;;;;;;;10.00;2.38;;;18.60;99.50;;;19.27;55.93;100591.72;5095045;28;20307;-75
2021/07/30 00:14:37;;;;;;;8.07;2.47;;;18.60;99.60;;;19.28;55.70;100595.19;5097559;28;20191;-75
2021/07/30 00:17:05;;;;;;;10.70;2.33;;;18.60;99.70;;;19.25;55.95;100592.78;5096524;28;20195;-75
2021/07/30 00:19:33;;;;;;;6.65;2.10;;;18.60;99.80;;;19.22;56.04;100585.91;5096477;28;20231;-74
2021/07/30 00:22:01;;;;;;;5.53;1.90;;;18.50;99.80;;;19.20;55.86;100582.50;5078743;28;20221;-76
2021/07/30 00:24:28;;;;;;;8.88;2.30;;;18.50;99.80;;;19.16;56.12;100583.69;5097184;28;20191;-75
2021/07/30 00:26:54;;;;;;;6.97;2.20;;;18.50;99.80;;;19.16;56.20;100586.34;5095284;28;20188;-75
2021/07/30 00:29:21;;;;;;;9.07;2.17;;;18.50;99.90;;;19.16;55.81;100581.03;5078023;28;20223;-77
2021/07/30 00:31:48;;;;;;;8.10;2.03;;;18.50;99.90;;;19.15;55.93;100581.16;5093305;28;20209;-75
2021/07/30 00:34:15;;;;;;;7.05;2.08;;;18.50;99.90;;;19.14;55.88;100577.66;5093299;28;20198;-75
2021/07/30 00:36:41;;;;;;;10.48;2.60;;;18.40;99.80;;;19.14;55.69;100571.50;5077750;28;20190;-75
2021/07/30 00:39:10;;;;;;;9.02;2.50;;;18.40;99.80;;;19.13;55.61;100570.66;5096952;28;20263;-75
2021/07/30 00:41:39;;;;;;;8.80;2.08;;;18.40;99.80;;;19.07;55.43;100565.81;5077927;28;20199;-75
2021/07/30 00:44:06;;;;;;;9.65;2.40;;;18.40;99.80;;;19.04;55.93;100559.91;5077249;28;20604;-73
2021/07/30 00:46:33;;;;;;;9.55;2.38;;;18.40;99.90;;;19.03;55.87;100561.69;5078179;28;20188;-75
2021/07/30 00:49:00;;;;;;;6.90;2.00;;;18.30;99.90;;;19.03;55.95;100560.84;5094866;28;20559;-75
2021/07/30 00:51:27;;;;;;;10.00;2.63;;;18.30;99.90;;;19.05;55.84;100561.56;5094867;28;20222;-76
2021/07/30 00:53:55;;;;;;;8.13;2.10;;;18.30;99.90;;;19.01;55.56;100557.44;5095800;28;20198;-75
2021/07/30 00:56:24;;;;;;;8.00;2.30;;;18.30;99.90;;;18.97;55.64;100563.97;5096837;28;20551;-75
2021/07/30 00:58:52;;;;;;;7.53;2.22;;;18.30;99.70;;;18.93;55.25;100566.00;5107357;28;20211;-76
2021/07/30 01:01:19;;;;;;;9.55;2.40;;;18.20;99.60;;;18.90;55.37;100563.59;5117575;28;20193;-79
2021/07/30 01:03:46;;;;;;;6.85;2.22;;;18.20;99.60;;;18.88;55.17;100567.28;5099332;28;20195;-78
2021/07/30 01:06:13;;;;;;;5.95;2.10;;;18.20;99.70;;;18.86;55.38;100562.09;5106529;28;20198;-73
2021/07/30 01:08:40;;;;;;;7.45;2.35;;;18.20;99.70;;;18.81;55.33;100564.25;5098470;28;20203;-76
2021/07/30 01:11:06;;;;;;;9.18;2.40;;;18.10;99.70;;;18.77;55.31;100560.97;5097809;28;20210;-74
2021/07/30 01:13:34;;;;;;;5.30;1.75;;;18.10;99.70;;;18.74;55.53;100563.00;5097335;28;20584;-75
2021/07/30 01:16:01;;;;;;;7.38;1.92;;;18.10;99.90;;;18.72;55.54;100563.13;5081008;28;20206;-78
2021/07/30 01:18:28;;;;;;;6.55;2.00;;;18.10;99.90;;;18.73;55.42;100569.28;5080936;28;20204;-74
2021/07/30 01:21:18;;;;;;;8.35;2.00;;;18.10;99.80;;;18.69;55.79;100570.44;5100296;28;20290;-75
2021/07/30 01:23:47;;;;;;;7.47;1.98;;;18.00;99.80;;;18.63;55.50;100565.59;5090437;28;20193;-76
2021/07/30 01:26:15;;;;;;;6.25;2.00;;;18.00;99.90;;;18.59;56.01;100564.97;5105001;28;20246;-75
2021/07/30 01:28:42;;;;;;;7.00;1.98;;;17.90;99.90;;;18.57;55.87;100561.59;5083891;28;20215;-76
2021/07/30 01:31:09;;;;;;;8.10;2.20;;;17.90;99.90;;;18.54;56.47;100555.66;5104334;28;20206;-75
2021/07/30 01:33:36;;;;;;;5.75;1.85;;;17.90;99.90;;;18.52;56.22;100558.44;5090247;28;20184;-76
2021/07/30 01:36:03;;;;;;;6.63;1.90;;;17.90;99.90;;;18.53;56.31;100559.28;5109273;28;20175;-75
2021/07/30 01:38:31;;;;;;;7.10;2.00;;;17.90;99.90;;;18.52;56.20;100552.31;5106678;28;20211;-74
2021/07/30 01:41:09;;;;;;;7.70;1.90;;;17.80;99.90;;;18.50;56.59;100551.56;5089358;28;20565;-75
2021/07/30 01:43:37;;;;;;;7.13;2.08;;;17.80;99.90;;;18.50;56.53;100554.22;5111705;28;20180;-74
2021/07/30 01:46:04;;;;;;;7.32;2.20;;;17.80;99.90;;;18.49;56.80;100563.09;5087888;28;20289;-75
2021/07/30 01:48:31;;;;;;;8.30;2.47;;;17.80;99.90;;;18.47;56.96;100554.44;5102712;28;20210;-76
2021/07/30 01:50:58;;;;;;;7.32;1.95;;;17.80;99.90;;;18.46;57.13;100552.72;5103496;28;20214;-73
2021/07/30 01:53:25;;;;;;;8.55;2.15;;;17.80;99.90;;;18.42;56.75;100548.63;5083032;28;20191;-75
2021/07/30 01:55:51;;;;;;;8.05;2.17;;;17.80;99.90;;;18.42;57.08;100551.28;5078201;28;20594;-75
2021/07/30 01:58:19;;;;;;;5.78;1.90;;;17.80;99.90;;;18.42;57.16;100553.94;5095445;28;20209;-75
2021/07/30 02:00:46;;;;;;;10.40;2.20;;;17.80;99.90;;;18.39;57.00;100552.34;5096207;28;20192;-74
2021/07/30 02:03:13;;;;;;;8.35;2.30;;;17.70;99.90;;;18.36;57.19;100554.31;5077464;28;20203;-76
2021/07/30 02:05:40;;;;;;;7.25;2.20;;;17.70;99.90;;;18.32;57.44;100555.53;5075582;28;20195;-75
2021/07/30 02:08:08;;;;;;;8.07;2.50;;;17.70;99.90;;;18.30;57.60;100552.13;5092506;28;20199;-76
2021/07/30 02:10:35;;;;;;;9.55;2.30;;;17.70;99.90;;;18.29;57.63;100558.38;5075849;28;20241;-75
2021/07/30 02:15:47;;;;;;;7.18;2.20;;;17.60;99.90;;;18.29;58.01;100563.66;5093749;28;20186;-77
2021/07/30 02:18:14;;;;;;;6.40;2.10;;;17.60;99.90;;;18.28;57.98;100565.50;5093377;28;20191;-75
2021/07/30 02:20:41;;;;;;;6.32;2.05;;;17.60;99.90;;;18.27;58.23;100563.78;5093275;28;20194;-75
2021/07/30 02:23:08;;;;;;;7.88;2.40;;;17.60;99.90;;;18.25;58.52;100562.22;5092206;28;20207;-75
2021/07/30 02:25:35;;;;;;;7.97;2.40;;;17.60;99.90;;;18.22;58.35;100565.09;5074861;28;20192;-75
2021/07/30 02:28:01;;;;;;;7.25;2.50;;;17.60;99.90;;;18.19;58.59;100562.63;5092627;28;20222;-74
2021/07/30 02:30:28;;;;;;;7.78;2.95;;;17.50;99.90;;;18.17;58.59;100569.88;5093174;28;20195;-74
2021/07/30 02:32:56;;;;;;;6.32;2.20;;;17.50;99.90;;;18.14;58.75;100570.06;5093158;28;20211;-75
2021/07/30 02:35:23;;;;;;;9.75;2.63;;;17.50;99.90;;;18.14;58.88;100570.06;5092894;28;20195;-75
2021/07/30 02:37:50;;;;;;;8.20;2.53;;;17.50;99.90;;;18.11;59.16;100567.63;5092951;28;20188;-75
2021/07/30 02:40:17;;;;;;;7.22;2.42;;;17.50;99.90;;;18.07;59.10;100571.47;5074783;28;20219;-75
2021/07/30 02:42:44;;;;;;;9.18;2.30;;;17.40;99.90;;;18.03;59.23;100575.28;5091706;28;20213;-75
2021/07/30 02:45:12;;;;;;;9.82;2.28;;;17.40;99.90;;;18.01;59.35;100577.19;5091937;28;20678;-75
2021/07/30 02:47:38;;;;;;;6.75;2.35;;;17.40;99.90;;;18.00;59.11;100580.81;5074561;28;20188;-75
2021/07/30 02:50:08;;;;;;;11.98;2.30;;;17.40;99.90;;;17.95;59.46;100583.75;5074782;28;20211;-76
2021/07/30 02:52:35;;;;;;;9.57;2.30;;;17.30;99.90;;;17.94;59.50;100581.22;5091621;28;20208;-76
2021/07/30 02:55:02;;;;;;;7.28;2.50;;;17.30;99.90;;;17.94;59.72;100583.84;5092805;28;20648;-75
2021/07/30 02:57:28;;;;;;;7.82;2.33;;;17.30;99.90;;;17.91;59.44;100579.63;5074246;28;20235;-76
2021/07/30 02:59:55;;;;;;;6.43;2.13;;;17.30;99.90;;;17.88;59.49;100579.00;5074765;28;20688;-75
2021/07/30 03:02:22;;;;;;;9.07;2.50;;;17.20;99.90;;;17.80;59.89;100582.16;5092621;28;20195;-75
2021/07/30 03:04:49;;;;;;;6.78;2.20;;;17.20;99.90;;;17.75;59.85;100576.34;5073785;28;20191;-75
2021/07/30 03:07:17;;;;;;;10.55;2.50;;;17.20;99.90;;;17.71;60.03;100579.31;5092342;28;20202;-76
2021/07/30 03:09:43;;;;;;;10.38;2.70;;;17.10;99.90;;;17.71;60.47;100579.31;5092347;28;20199;-76
2021/07/30 03:12:10;;;;;;;7.22;2.42;;;17.10;99.90;;;17.67;60.55;100577.81;5092278;28;20215;-75
2021/07/30 03:14:38;;;;;;;7.63;2.40;;;17.10;99.90;;;17.63;60.91;100576.34;5074041;28;20199;-76
2021/07/30 03:17:06;;;;;;;7.88;2.33;;;17.00;99.90;;;17.61;60.86;100579.13;5073887;28;20194;-74
2021/07/30 03:19:33;;;;;;;8.00;2.55;;;17.00;99.90;;;17.58;61.07;100579.34;5092014;28;20331;-74
2021/07/30 03:22:00;;;;;;;8.93;2.58;;;17.00;99.90;;;17.58;61.40;100573.19;5074017;28;20199;-75
2021/07/30 03:24:29;;;;;;;6.93;2.33;;;17.00;99.90;;;17.58;61.38;100574.03;5091057;28;20206;-76
2021/07/30 03:26:55;;;;;;;10.77;2.65;;;17.00;99.90;;;17.57;61.38;100569.69;5073834;28;20198;-75
2021/07/30 03:29:22;;;;;;;8.65;2.38;;;17.00;99.90;;;17.59;61.12;100578.38;5073952;28;20211;-75
2021/07/30 03:31:50;;;;;;;11.32;2.60;;;17.00;99.90;;;17.61;61.38;100576.47;5073813;28;20218;-75
2021/07/30 03:34:18;;;;;;;7.68;2.40;;;17.00;99.90;;;17.63;61.62;100577.22;5091965;28;20675;-76
2021/07/30 03:36:45;;;;;;;6.15;2.20;;;17.10;99.90;;;17.63;61.64;100576.34;5091142;28;20218;-74
2021/07/30 03:39:12;;;;;;;7.10;2.55;;;17.10;99.90;;;17.63;61.64;100581.66;5092164;28;20210;-76
2021/07/30 03:41:40;;;;;;;7.88;2.50;;;17.10;99.90;;;17.67;61.58;100573.38;5074069;28;20563;-75
2021/07/30 03:44:07;;;;;;;8.02;2.20;;;17.10;99.90;;;17.69;61.66;100581.22;5092275;28;20554;-75
2021/07/30 03:46:34;;;;;;;7.93;2.28;;;17.10;99.90;;;17.71;61.68;100574.03;5091770;28;20537;-76
2021/07/30 03:49:01;;;;;;;9.55;2.35;;;17.10;99.90;;;17.70;61.82;100588.22;5090925;28;20211;-75
2021/07/30 03:51:27;;;;;;;8.20;2.38;;;17.10;99.90;;;17.69;61.68;100581.22;5092204;28;20204;-75
2021/07/30 03:53:54;;;;;;;7.53;2.33;;;17.10;99.90;;;17.71;61.69;100584.63;5073925;28;20187;-75
2021/07/30 03:56:21;;;;;;;6.75;2.38;;;17.10;99.90;;;17.70;61.96;100583.75;5073609;28;20282;-74
2021/07/30 03:58:49;;;;;;;7.18;2.50;;;17.10;99.90;;;17.67;62.00;100580.47;5074225;28;20215;-75
2021/07/30 04:01:16;;;;;;;9.25;2.95;;;17.10;99.90;;;17.66;62.33;100582.28;5090976;28;20200;-75
2021/07/30 04:03:44;;;;;;;9.48;2.85;;;17.10;99.90;;;17.66;62.58;100581.44;5094012;28;20179;-75
2021/07/30 04:06:11;;;;;;;9.20;2.60;;;17.10;99.90;;;17.66;62.33;100578.78;5101431;28;20188;-77
2021/07/30 04:08:38;;;;;;;9.55;2.85;;;17.10;99.90;;;17.62;62.86;100570.22;5097828;28;20211;-77
2021/07/30 04:11:05;;;;;;;8.55;2.63;;;17.00;99.90;;;17.63;62.89;100582.50;5118446;28;20183;-77
2021/07/30 04:13:33;;;;;;;9.70;2.40;;;17.00;99.90;;;17.62;62.73;100569.34;5098952;28;20198;-76
2021/07/30 04:16:03;;;;;;;9.13;2.72;;;17.00;99.90;;;17.61;63.07;100579.13;5077404;28;20214;-76
2021/07/30 04:18:30;;;;;;;10.35;2.78;;;17.00;99.90;;;17.61;62.95;100583.56;5077233;28;20210;-75
2021/07/30 04:20:57;;;;;;;7.05;2.50;;;17.00;99.90;;;17.62;62.98;100580.81;5077341;28;20191;-73
2021/07/30 04:23:25;;;;;;;9.93;2.85;;;17.00;99.90;;;17.62;62.96;100575.50;5094035;28;20574;-76
2021/07/30 04:25:52;;;;;;;8.27;2.50;;;17.00;99.90;;;17.64;63.09;100578.91;5095453;28;20187;-75
2021/07/30 04:28:19;;;;;;;9.10;3.00;;;17.00;99.90;;;17.64;63.18;100567.47;5076851;28;20226;-75
2021/07/30 04:30:45;;;;;;;8.60;2.33;;;17.10;99.90;;;17.67;63.53;100578.69;5077194;28;20196;-76
2021/07/30 04:33:13;;;;;;;9.98;2.92;;;17.10;99.90;;;17.66;63.43;100578.78;5095300;28;20207;-75
2021/07/30 04:35:40;;;;;;;9.70;2.60;;;17.10;99.90;;;17.64;63.18;100570.09;5076970;28;20195;-75
2021/07/30 04:38:07;;;;;;;9.25;2.60;;;17.00;99.90;;;17.65;63.33;100570.00;5094970;28;20172;-76
2021/07/30 04:40:34;;;;;;;9.80;2.65;;;17.10;99.90;;;17.66;63.19;100581.44;5093911;28;20214;-75
2021/07/30 04:43:01;;;;;;;8.93;2.83;;;17.10;99.90;;;17.63;63.24;100574.56;5094962;28;20274;-77
2021/07/30 04:45:28;;;;;;;7.82;2.80;;;17.10;99.90;;;17.63;63.12;100582.50;5076627;28;20191;-76
2021/07/30 04:47:55;;;;;;;8.73;2.78;;;17.10;99.90;;;17.63;63.46;100577.22;5094558;28;20191;-75
2021/07/30 04:50:23;;;;;;;7.07;2.40;;;17.10;99.90;;;17.69;63.47;100586.50;5094833;28;20636;-76
2021/07/30 04:52:54;;;;;;;9.57;2.67;;;17.10;99.90;;;17.75;63.19;100594.06;5076490;28;20215;-76
2021/07/30 04:55:21;;;;;;;9.32;2.92;;;17.20;99.90;;;17.77;63.15;100592.97;5093534;28;20203;-76
2021/07/30 04:57:48;;;;;;;8.20;2.75;;;17.20;99.90;;;17.77;63.30;100589.47;5094432;28;20187;-77
2021/07/30 05:00:18;;;;;;;8.32;2.63;;;17.20;99.90;;;17.80;63.22;100595.41;5097113;28;20218;-77
2021/07/30 05:02:45;;;;;;;10.98;2.70;;;17.20;99.90;;;17.81;63.32;100585.69;5077103;28;20196;-76
2021/07/30 05:05:12;;;;;;;10.15;2.67;;;17.30;99.90;;;17.84;63.34;100593.41;5076044;28;20554;-75
2021/07/30 05:07:42;;;;;;;8.45;2.70;;;17.30;99.90;;;17.84;63.24;100591.59;5092957;28;20195;-76
2021/07/30 05:10:10;;;;;;;9.57;3.00;;;17.30;99.90;;;17.88;63.23;100587.81;5076366;28;20212;-74
2021/07/30 05:12:37;;;;;;;10.43;3.30;;;17.30;99.90;;;17.89;63.45;100583.34;5094376;28;20203;-77
2021/07/30 05:15:04;;;;;;;10.25;3.15;;;17.30;99.90;;;17.91;63.33;100584.09;5094352;28;20187;-76
2021/07/30 05:17:31;;;;;;;10.32;2.85;;;17.40;99.90;;;17.93;63.14;100579.53;5076089;28;20191;-78
2021/07/30 05:19:58;;;;;;;7.50;2.97;;;17.40;99.90;;;17.96;63.25;100576.66;5094125;28;20199;-75
2021/07/30 05:22:25;;;;;;;8.20;2.50;;;17.40;99.90;;;17.99;63.32;100576.44;5094259;28;20206;-75
2021/07/30 05:24:53;;;;;;;12.32;2.95;;;17.50;99.90;;;18.01;63.34;100577.19;5094268;28;20179;-77
2021/07/30 05:27:19;;;;;;;11.90;3.33;;;17.50;99.90;;;18.04;63.21;100582.25;5076077;28;20203;-75
2021/07/30 05:29:46;;;;;;;9.10;2.80;;;17.50;99.90;;;18.09;63.11;100580.13;5093060;28;20226;-76
2021/07/30 05:32:13;;;;;;;8.52;2.50;;;17.50;99.90;;;18.14;63.13;100583.31;5094150;28;20218;-76
2021/07/30 05:34:40;;;;;;;9.50;2.75;;;17.60;99.90;;;18.21;62.89;100589.88;5094054;28;20260;-76
2021/07/30 05:37:06;;;;;;;27.00;10.93;;;17.60;99.90;;;18.25;63.13;100576.28;5075664;28;20194;-75
2021/07/30 05:39:33;;;;;;;11.85;3.63;;;17.70;99.90;;;18.29;62.77;100582.22;5095215;28;20203;-76
2021/07/30 05:42:03;;;;;;;18.08;6.53;;;17.70;99.90;;;18.29;62.65;100576.91;5076393;28;20199;-76
2021/07/30 05:44:29;;;;;;;13.40;4.38;;;17.70;99.90;;;18.34;62.83;100585.38;5094021;28;20184;-76
2021/07/30 05:46:56;;;;;;;12.93;3.70;;;17.80;99.90;;;18.39;62.92;100581.47;5075890;28;20188;-76
2021/07/30 05:49:23;;;;;;;13.65;3.05;;;17.80;99.90;;;18.43;62.69;100576.81;5093997;28;20261;-76
2021/07/30 05:51:50;;;;;;;8.30;2.80;;;17.90;99.90;;;18.44;62.63;100582.00;5094392;28;20670;-76
2021/07/30 05:54:17;;;;;;;10.02;3.08;;;17.90;99.90;;;18.47;62.66;100587.06;5096246;28;20183;-75
2021/07/30 05:56:44;;;;;;;9.82;2.35;;;17.90;99.90;;;18.51;62.83;100588.56;5078092;28;20191;-78
2021/07/30 05:59:12;;;;;;;841.30;96.78;;;18.00;99.90;;;18.58;62.50;100583.66;5095064;28;20207;-76
2021/07/30 06:01:39;;;;;;;78.70;10.95;;;18.00;99.90;;;18.65;62.52;100582.25;5094625;28;20552;-76
2021/07/30 06:04:05;;;;;;;318.60;30.85;;;18.10;99.90;;;18.68;62.46;100574.94;5076131;28;20191;-76
2021/07/30 06:06:33;;;;;;;55.40;7.82;;;18.20;99.90;;;18.75;62.27;100570.03;5092357;28;20195;-79
2021/07/30 06:08:59;;;;;;;20.60;4.63;;;18.20;99.90;;;18.81;62.27;100564.25;5075663;28;20276;-75
2021/07/30 06:11:26;;;;;;;15.18;3.60;;;18.20;99.90;;;18.86;62.28;100566.56;5094183;28;20228;-74
2021/07/30 06:13:53;;;;;;;11.90;3.05;;;18.30;99.90;;;18.89;61.80;100567.16;5076108;28;20269;-76
2021/07/30 06:16:21;;;;;;;9.75;2.75;;;18.30;99.90;;;18.93;61.98;100571.31;5075718;28;20202;-76
2021/07/30 06:18:48;;;;;;;20.08;4.47;;;18.40;99.90;;;19.00;61.65;100563.72;5085994;28;20243;-76
2021/07/30 06:21:20;;;;;;;15.23;2.92;;;18.40;99.90;;;19.06;61.72;100566.75;5094156;28;20191;-74
2021/07/30 06:23:47;;;;;;;17.17;3.92;;;18.50;99.90;;;19.11;61.63;100564.63;5094165;28;20183;-76
2021/07/30 06:26:14;;;;;;;10.23;3.10;;;18.60;99.90;;;19.19;61.58;100570.19;5075728;28;20187;-77
2021/07/30 06:28:41;;;;;;;12.45;2.60;;;18.60;99.90;;;19.24;61.46;100565.38;5075339;28;20219;-76
2021/07/30 06:31:08;;;;;;;8.18;2.33;;;18.70;99.90;;;19.30;61.29;100567.63;5075315;28;20180;-76
2021/07/30 06:33:36;;;;;;;6.95;2.25;;;18.70;99.90;;;19.36;61.13;100572.44;5074773;28;20714;-75
2021/07/30 06:36:04;;;;;;;22.75;3.38;;;18.80;99.90;;;19.36;60.93;100567.13;5092353;28;20233;-74
2021/07/30 06:38:31;;;;;;;10.15;2.55;;;18.80;99.90;;;19.41;60.80;100574.75;5093181;28;20210;-76
2021/07/30 06:40:58;;;;;;;21.42;3.10;;;18.90;99.90;;;19.45;60.68;100568.25;5074933;28;20225;-75
2021/07/30 06:43:25;;;;;;;8.73;2.83;;;18.90;99.90;;;19.51;60.51;100581.91;5093277;28;20180;-77
2021/07/30 06:45:52;;;;;;;12.48;2.67;;;19.00;99.90;;;19.55;60.26;100561.25;5092945;28;20195;-76
2021/07/30 06:48:19;;;;;;;8.70;2.88;;;19.10;99.90;;;19.59;60.33;100568.88;5092875;28;20242;-74
2021/07/30 06:50:47;;;;;;;12.52;2.85;;;19.20;99.90;;;19.64;60.36;100568.53;5074614;28;20198;-75
2021/07/30 06:53:14;;;;;;;8.95;2.80;;;19.30;99.90;;;19.67;60.18;100571.81;5075249;28;20274;-74
2021/07/30 06:55:40;;;;;;;10.63;2.80;;;19.30;99.90;;;19.73;60.08;100571.31;5075294;28;20199;-74
2021/07/30 06:58:07;;;;;;;8.48;2.50;;;19.30;99.90;;;19.76;59.92;100568.41;5091735;28;20222;-75
2021/07/30 07:00:34;;;;;;;13.13;2.95;;;19.40;99.90;;;19.85;59.83;100564.19;5092036;28;20229;-75
2021/07/30 07:03:03;;;;;;;8.15;2.58;;;19.50;99.90;;;19.92;59.94;100566.28;5074847;28;20195;-76
2021/07/30 07:05:30;;;;;;;9.15;2.85;;;19.60;99.90;;;19.99;59.86;100566.63;5093270;28;20298;-75
2021/07/30 07:07:59;;;;;;;10.35;2.78;;;19.60;99.90;;;20.07;59.37;100563.34;5091917;28;20518;-75
2021/07/30 07:10:25;;;;;;;19.02;3.20;;;19.70;99.90;;;20.11;59.09;100559.50;5092565;28;20199;-75
2021/07/30 07:12:52;;;;;;;8.15;2.53;;;19.70;99.90;;;20.16;58.86;100552.03;5077392;28;20294;-74
2021/07/30 07:15:19;;;;;;;14.00;3.00;;;19.80;99.90;;;20.23;58.80;100558.56;5098803;28;20274;-77
2021/07/30 07:17:46;;;;;;;7.88;2.78;;;19.90;99.90;;;20.24;58.36;100547.78;5115419;28;20690;-77
2021/07/30 07:20:13;;;;;;;9.43;2.60;;;19.90;99.90;;;20.29;58.59;100552.72;5103276;28;20591;-75
2021/07/30 07:22:40;;;;;;;9.75;2.47;;;20.00;99.90;;;20.34;58.49;100555.88;5092841;28;20586;-72
2021/07/30 07:25:09;;;;;;;9.95;2.70;;;20.00;99.90;;;20.42;58.29;100553.44;5075126;28;20655;-76
2021/07/30 07:27:37;;;;;;;11.10;2.90;;;20.10;99.90;;;20.51;58.16;100550.03;5075021;28;20199;-75
2021/07/30 07:30:05;;;;;;;13.52;3.10;;;20.20;99.90;;;20.55;57.73;100554.13;5074795;28;20215;-75
2021/07/30 07:32:32;;;;;;;8.73;2.70;;;20.30;99.90;;;20.61;57.67;100549.19;5078020;28;20208;-78
2021/07/30 07:34:58;;;;;;;9.60;2.60;;;20.30;99.90;;;20.68;57.75;100554.84;5075500;28;20206;-74
2021/07/30 07:37:25;;;;;;;14.77;2.97;;;20.40;99.90;;;20.74;57.80;100560.50;5093455;28;20187;-75
2021/07/30 07:39:52;;;;;;;11.52;3.40;;;20.50;99.90;;;20.78;57.46;100553.09;5075350;28;20218;-75
2021/07/30 07:42:20;;;;;;;12.20;2.80;;;20.60;99.90;;;20.81;56.93;100558.16;5093247;28;20236;-75
2021/07/30 07:44:51;;;;;;;13.00;2.75;;;20.50;99.90;;;20.82;56.57;100549.19;5077714;28;20198;-73
2021/07/30 07:47:18;;;;;;;22.17;3.30;;;20.60;99.90;;;20.88;56.75;100557.53;5078795;28;20175;-75
2021/07/30 07:49:45;;;;;;;7.47;2.65;;;20.60;99.90;;;20.94;56.45;100553.53;5079274;28;20272;-75
2021/07/30 07:52:12;;;;;;;10.82;2.95;;;20.70;99.90;;;20.98;56.61;100553.16;5079077;28;20187;-74
2021/07/30 07:54:38;;;;;;;11.32;3.17;;;20.80;99.90;;;21.03;55.93;100550.13;5078478;28;20227;-73
2021/07/30 07:57:06;;;;;;;10.10;2.70;;;20.80;99.90;;;21.05;55.98;100542.84;5094858;28;20559;-75
2021/07/30 07:59:35;;;;;;;13.40;3.58;;;20.90;99.90;;;21.13;55.70;100545.72;5078501;28;20229;-75
2021/07/30 08:02:04;;;;;;;8.55;2.58;;;20.90;99.90;;;21.17;55.61;100544.47;5095279;28;20198;-76
2021/07/30 08:04:32;;;;;;;14.75;2.90;;;21.00;99.90;;;21.22;54.96;100534.28;5078575;28;20561;-74
2021/07/30 08:07:02;;;;;;;9.82;3.53;;;21.10;99.90;;;21.32;55.30;100532.53;5077659;28;20191;-75
2021/07/30 08:09:30;;;;;;;8.27;2.65;;;21.20;99.90;;;21.40;54.86;100538.03;5095184;28;20219;-75
2021/07/30 08:11:57;;;;;;;10.10;3.05;;;21.30;99.90;;;21.44;54.37;100533.31;5079320;28;20206;-77
2021/07/30 08:14:24;;;;;;;9.02;3.00;;;21.30;99.90;;;21.47;54.08;100541.06;5096370;28;20210;-76
2021/07/30 08:16:52;;;;;;;9.95;3.08;;;21.40;99.90;;;21.52;54.49;100530.84;5077887;28;20194;-75
2021/07/30 08:19:19;;;;;;;10.65;3.22;;;21.40;99.90;;;21.55;54.35;100536.72;5077600;28;20211;-76
2021/07/30 08:21:46;;;;;;;10.85;3.42;;;21.40;99.90;;;21.54;54.23;100540.38;5095168;28;20218;-76
2021/07/30 08:24:13;;;;;;;26.98;4.43;;;21.40;99.90;;;21.56;54.16;100533.13;5078396;28;20202;-75
2021/07/30 08:26:40;;;;;;;11.23;3.20;;;21.40;99.90;;;21.63;54.15;100528.94;5077675;28;20200;-76
2021/07/30 08:29:07;;;;;;;9.57;3.65;;;21.50;99.90;;;21.70;53.05;100531.94;5095938;28;20206;-77
2021/07/30 08:31:34;;;;;;;11.48;2.78;;;21.50;99.90;;;21.65;52.26;100531.47;5078187;28;20651;-76
2021/07/30 08:34:02;;;;;;;12.00;2.90;;;21.40;99.90;;;21.61;51.93;100532.72;5094765;28;20208;-76
2021/07/30 08:36:29;;;;;;;12.07;2.75;;;21.40;99.90;;;21.60;51.79;100539.84;5079610;28;20195;-74
2021/07/30 08:38:56;;;;;;;15.30;3.22;;;21.40;99.90;;;21.65;52.34;100531.47;5096815;28;20687;-76
2021/07/30 08:41:23;;;;;;;17.20;3.80;;;21.50;99.90;;;21.75;51.95;100535.84;5080149;28;20198;-76
2021/07/30 08:43:52;;;;;;;10.73;2.78;;;21.50;99.90;;;21.86;51.85;100546.47;5077771;28;20230;-76
2021/07/30 08:46:23;;;;;;;10.48;2.90;;;21.60;99.90;;;21.97;51.74;100537.56;5077896;28;20332;-75
2021/07/30 08:48:50;;;;;;;12.57;3.28;;;21.80;99.90;;;22.07;51.13;100535.78;5095638;28;20324;-75
2021/07/30 08:51:21;;;;;;;7.70;2.83;;;21.90;99.90;;;22.14;51.16;100534.22;5077571;28;20191;-76
2021/07/30 08:53:48;;;;;;;8.82;2.60;;;22.00;99.90;;;22.20;50.74;100529.19;5096136;28;20590;-74
2021/07/30 08:56:16;;;;;;;8.13;2.58;;;22.10;99.90;;;22.26;50.62;100528.66;5077014;28;20578;-76
2021/07/30 08:58:44;;;;;;;9.25;2.75;;;22.10;99.90;;;22.30;50.27;100514.06;5077264;28;20662;-75
2021/07/30 09:01:11;;;;;;;10.45;2.97;;;22.20;99.90;;;22.36;49.98;100537.53;5095226;28;20184;-76
2021/07/30 09:03:40;;;;;;;10.35;2.80;;;22.20;99.90;;;22.35;49.65;100529.66;5076954;28;20199;-76
2021/07/30 09:06:19;;;;;;;17.70;3.22;;;22.20;99.80;;;22.34;49.51;100526.16;5076801;28;20196;-76
2021/07/30 09:08:46;;;;;;;10.63;2.20;;;22.20;99.80;;;22.39;49.64;100525.72;5095241;28;20211;-77
2021/07/30 09:11:30;;;;;;;10.30;4.03;;;22.30;99.90;;;22.48;49.98;100532.06;5076668;28;20683;-75
2021/07/30 09:13:59;;;;;;;17.02;3.92;;;22.40;99.70;;;22.46;49.82;100526.03;5097410;28;20697;-76
2021/07/30 09:16:26;;;;;;;8.23;2.75;;;22.40;99.60;;;22.53;49.24;100514.72;5077460;28;20198;-76
2021/07/30 09:18:53;;;;;;;9.30;3.00;;;22.50;99.40;;;22.65;49.28;100518.94;5077039;28;20222;-72
2021/07/30 09:21:35;;;;;;;8.82;2.65;;;22.60;99.30;;;22.77;48.47;100519.66;5094792;28;20181;-76
2021/07/30 09:24:05;;;;;;;9.43;2.53;;;22.70;99.10;;;22.88;48.60;100514.16;5078002;28;20241;-75
2021/07/30 09:26:41;;;;;;;10.45;2.55;;;22.80;98.60;;;22.97;47.83;100507.97;5098155;28;20195;-75
2021/07/30 09:29:12;;;;;;;8.68;2.60;;;22.90;97.90;;;22.98;47.14;100515.00;5100920;28;20691;-77
2021/07/30 09:31:46;;;;;;;10.15;2.70;;;22.90;97.80;;;22.95;47.50;100508.13;5117547;28;20247;-77
2021/07/30 09:34:23;;;;;;;8.88;2.50;;;22.90;97.80;;;22.93;47.51;100509.22;5101100;28;20218;-78
2021/07/30 09:36:57;;;;;;;8.05;2.40;;;22.90;97.50;;;22.95;47.45;100509.94;5101474;28;20201;-78
2021/07/30 09:39:27;;;;;;;10.05;2.60;;;22.90;97.70;;;23.00;47.32;100507.69;5101572;28;20219;-77
2021/07/30 09:42:04;;;;;;;18.23;3.17;;;22.90;97.50;;;22.95;47.10;100510.78;5101147;28;20187;-78
2021/07/30 09:44:33;;;;;;;8.40;2.42;;;22.90;97.40;;;22.96;47.03;100507.13;5101782;28;20168;-74
2021/07/30 09:47:06;;;;;;;11.95;2.75;;;22.90;97.30;;;23.08;47.13;100499.81;5118908;28;20179;-79
2021/07/30 09:49:43;;;;;;;10.38;3.05;;;23.00;97.30;;;23.15;47.09;100503.59;5101585;28;20310;-79
2021/07/30 09:52:15;;;;;;;8.40;2.83;;;23.10;97.30;;;23.22;47.11;100488.69;5101740;28;20216;-79
2021/07/30 09:54:48;;;;;;;9.38;3.00;;;23.20;97.70;;;23.35;47.45;100491.91;5101452;28;20199;-77
2021/07/30 09:57:17;;;;;;;9.85;2.90;;;23.30;97.60;;;23.46;47.62;100486.41;5101078;28;20203;-78
2021/07/30 09:59:46;;;;;;;14.63;4.13;;;23.40;97.90;;;23.58;47.22;100484.41;5118995;28;20255;-78
2021/07/30 10:02:16;;;;;;;11.07;3.17;;;23.50;97.40;;;23.67;47.28;100487.03;5118891;28;20194;-77
2021/07/30 10:04:47;;;;;;;9.27;2.72;;;23.70;97.50;;;23.79;46.82;100493.88;5108351;28;20184;-75
2021/07/30 10:07:18;;;;;;;8.98;2.85;;;23.80;97.20;;;23.90;46.98;100483.00;5114287;28;20247;-78
2021/07/30 10:09:50;;;;;;;8.32;2.70;;;23.90;97.10;;;24.00;46.94;100481.16;5116801;28;20203;-77
2021/07/30 10:12:18;;;;;;;8.60;2.50;;;24.00;96.90;;;24.03;46.24;100474.66;5090450;28;20665;-77
2021/07/30 10:14:46;;;;;;;7.63;2.33;;;24.10;96.30;;;24.07;46.52;100473.34;5079762;28;20226;-76
2021/07/30 10:17:22;;;;;;;8.30;2.72;;;24.20;96.60;;;24.07;46.57;100468.00;5106221;28;20205;-74